Time;durP1;ratioP1;P1;durP2;ratioP2;P2;SDS_P1;SDS_P2;PMS_P1;PMS_P2;Temp;Humidity;BMP_temperature;BMP_pressure;BME280_temperature;BME280_humidity;BME280_pressure;Samples;Min_cycle;Max_cycle;Signal;HPM_P1;HPM_P2
2023/08/18 00:01:29;;;;;;;8.27;3.80;;;;;;;23.79;67.22;65498.00;5053712;28;20243;-54
2023/08/18 00:03:55;;;;;;;4.55;3.63;;;;;;;23.70;68.12;65491.16;5053824;28;20201;-55
2023/08/18 00:06:21;;;;;;;6.75;3.90;;;;;;;23.70;68.33;65488.56;5053204;28;20216;-54
2023/08/18 00:08:46;;;;;;;4.70;3.60;;;;;;;23.58;69.20;65475.28;5053243;28;20201;-54
2023/08/18 00:11:11;;;;;;;7.35;4.13;;;;;;;23.66;68.49;65484.13;5035093;28;20259;-53
2023/08/18 00:13:37;;;;;;;6.30;3.50;;;;;;;23.60;69.38;65480.06;5053124;28;20182;-54
2023/08/18 00:16:03;;;;;;;5.15;3.97;;;;;;;23.70;67.41;65488.56;5053254;28;20767;-54
2023/08/18 00:18:29;;;;;;;5.72;3.63;;;;;;;23.72;66.79;65493.34;5035398;28;20225;-54
2023/08/18 00:20:54;;;;;;;6.70;4.20;;;;;;;23.50;69.36;65466.41;5034998;28;20201;-54
2023/08/18 00:23:19;;;;;;;6.20;3.50;;;;;;;23.46;69.50;65464.00;5053238;28;20294;-54
2023/08/18 00:25:45;;;;;;;4.13;3.55;;;;;;;23.51;69.02;65469.53;5052741;28;20208;-54
2023/08/18 00:28:11;;;;;;;6.40;3.65;;;;;;;23.62;68.17;65479.16;5053040;28;20597;-54
2023/08/18 00:30:36;;;;;;;4.57;3.60;;;;;;;23.43;69.29;65460.69;5035052;28;20698;-54
2023/08/18 00:33:02;;;;;;;4.85;3.60;;;;;;;23.30;71.12;65444.78;5035130;28;20283;-55
2023/08/18 00:35:27;;;;;;;6.40;3.95;;;;;;;23.33;69.70;65448.13;5052889;28;20272;-55
2023/08/18 00:37:53;;;;;;;5.32;3.72;;;;;;;23.34;69.42;65449.25;5052564;28;20312;-53
2023/08/18 00:40:19;;;;;;;6.43;3.85;;;;;;;23.32;69.48;65446.47;5034797;28;20254;-57
2023/08/18 00:42:44;;;;;;;5.32;3.88;;;;;;;23.42;69.64;65456.97;5034989;28;20217;-54
2023/08/18 00:45:10;;;;;;;3.85;3.53;;;;;;;23.33;68.43;65450.69;5052677;28;20201;-54
2023/08/18 00:47:37;;;;;;;5.70;3.50;;;;;;;23.24;69.38;65437.56;5052782;28;20334;-56
2023/08/18 00:50:04;;;;;;;4.07;3.60;;;;;;;23.39;68.67;65453.66;5052951;28;20201;-55
2023/08/18 00:52:30;;;;;;;7.43;3.63;;;;;;;23.38;68.81;65455.69;5052863;28;20225;-53
2023/08/18 00:55:15;;;;;;;5.13;3.28;;;;;;;23.34;69.46;65449.25;5052459;28;20613;-53
2023/08/18 00:57:40;;;;;;;3.85;3.38;;;;;;;23.34;68.79;65448.69;5034336;28;20221;-58
2023/08/18 01:00:06;;;;;;;4.03;3.20;;;;;;;23.31;68.77;65448.47;5052471;28;20658;-54
2023/08/18 01:02:32;;;;;;;3.58;3.28;;;;;;;23.29;69.70;65443.66;5052426;28;20217;-54
2023/08/18 01:05:02;;;;;;;4.55;3.65;;;;;;;23.26;70.08;65442.94;5052358;28;20660;-55
2023/08/18 01:07:28;;;;;;;5.10;3.47;;;;;;;23.26;69.16;65440.34;5052574;28;20216;-55
2023/08/18 01:09:54;;;;;;;9.32;3.60;;;;;;;23.22;70.01;65438.50;5052571;28;20252;-55
2023/08/18 01:12:41;;;;;;;6.38;3.58;;;;;;;23.16;70.46;65431.84;5052637;28;20217;-54
2023/08/18 01:15:20;;;;;;;6.65;3.60;;;;;;;23.17;71.71;65430.38;5052192;28;20200;-54
2023/08/18 01:17:54;;;;;;;5.53;4.00;;;;;;;23.19;71.52;65434.63;5034028;28;20232;-55
2023/08/18 01:20:21;;;;;;;6.45;3.80;;;;;;;23.07;72.18;65421.88;5052674;28;20204;-54
2023/08/18 01:22:53;;;;;;;5.40;3.78;;;;;;;23.20;71.50;65436.28;5034312;28;20205;-56
2023/08/18 01:25:19;;;;;;;6.18;4.00;;;;;;;23.05;72.20;65417.09;5052182;28;20198;-54
2023/08/18 01:27:44;;;;;;;7.60;3.90;;;;;;;22.97;73.08;65408.22;5052385;28;20255;-55
2023/08/18 01:30:10;;;;;;;7.65;3.75;;;;;;;22.93;73.34;65405.81;5052282;28;20209;-55
2023/08/18 01:32:43;;;;;;;5.30;3.95;;;;;;;22.97;72.98;65410.78;5051673;28;20218;-52
2023/08/18 01:35:10;;;;;;;5.07;3.67;;;;;;;22.86;74.07;65401.19;5052034;28;20201;-54
2023/08/18 01:37:37;;;;;;;6.40;4.63;;;;;;;22.79;74.10;65390.28;5051866;28;20216;-55
2023/08/18 01:40:04;;;;;;;5.13;3.40;;;;;;;22.73;74.97;65381.09;5052139;28;20197;-55
2023/08/18 01:42:30;;;;;;;4.75;4.00;;;;;;;22.64;75.58;65374.25;5052098;28;20205;-56
2023/08/18 01:45:03;;;;;;;7.47;4.03;;;;;;;22.63;75.32;65373.13;5033845;28;20205;-53
2023/08/18 01:47:29;;;;;;;5.60;4.15;;;;;;;22.64;76.09;65379.41;5033878;28;20209;-55
2023/08/18 01:49:55;;;;;;;6.18;4.35;;;;;;;22.53;76.08;65359.47;5051697;28;20232;-54
2023/08/18 01:52:20;;;;;;;5.05;4.10;;;;;;;22.57;76.07;65366.47;5051722;28;20244;-54
2023/08/18 01:54:46;;;;;;;11.18;4.60;;;;;;;22.60;75.90;65367.25;5051544;28;20303;-55
2023/08/18 01:57:11;;;;;;;6.60;4.20;;;;;;;22.42;76.63;65347.31;5051686;28;20668;-55
2023/08/18 01:59:37;;;;;;;5.50;3.95;;;;;;;22.47;76.30;65353.41;5052137;28;20205;-54
2023/08/18 02:02:02;;;;;;;4.53;3.85;;;;;;;22.48;76.43;65356.53;5051960;28;20273;-54
2023/08/18 02:04:28;;;;;;;4.80;4.25;;;;;;;22.61;75.18;65367.78;5051573;28;20267;-55
2023/08/18 02:06:53;;;;;;;4.80;4.18;;;;;;;22.53;75.11;65365.19;5051311;28;20224;-54
2023/08/18 02:09:18;;;;;;;8.38;4.00;;;;;;;22.58;74.69;65364.50;5051786;28;20549;-54
2023/08/18 02:11:44;;;;;;;4.97;4.40;;;;;;;22.47;76.60;65352.84;5051599;28;20249;-55
2023/08/18 02:14:09;;;;;;;7.10;4.15;;;;;;;22.35;76.55;65339.56;5050437;28;20748;-55
2023/08/18 02:16:35;;;;;;;4.72;4.10;;;;;;;22.44;75.92;65349.53;5051390;28;20209;-53
2023/08/18 02:19:01;;;;;;;6.97;4.18;;;;;;;22.45;75.19;65350.63;5051109;28;20623;-55
2023/08/18 02:21:30;;;;;;;6.70;4.10;;;;;;;22.41;77.49;65346.75;5051477;28;20205;-53
2023/08/18 02:23:55;;;;;;;6.30;3.92;;;;;;;22.35;77.25;65342.69;5033061;28;20185;-54
2023/08/18 02:26:21;;;;;;;6.20;4.03;;;;;;;22.35;76.55;65339.56;5050971;28;20343;-55
2023/08/18 02:28:47;;;;;;;4.63;4.03;;;;;;;22.32;77.90;65336.78;5051373;28;20702;-54
2023/08/18 02:31:19;;;;;;;5.40;3.60;;;;;;;22.23;78.27;65329.41;5032997;28;20578;-54
2023/08/18 02:33:45;;;;;;;5.00;4.07;;;;;;;22.20;79.12;65328.09;5050895;28;20698;-54
2023/08/18 02:36:10;;;;;;;4.55;4.10;;;;;;;22.33;77.72;65339.91;5050911;28;20209;-53
2023/08/18 02:38:37;;;;;;;4.80;4.30;;;;;;;22.28;77.64;65331.81;5051214;28;20319;-54
2023/08/18 02:41:02;;;;;;;6.82;4.30;;;;;;;22.08;78.86;65309.69;5051061;28;20205;-53
2023/08/18 02:43:27;;;;;;;4.95;3.95;;;;;;;22.16;77.78;65321.09;5050965;28;20212;-55
2023/08/18 02:45:57;;;;;;;6.18;3.80;;;;;;;22.14;78.34;65318.88;5050723;28;20193;-55
2023/08/18 02:48:26;;;;;;;8.63;3.67;;;;;;;22.15;78.63;65322.56;5050750;28;20211;-56
2023/08/18 02:51:02;;;;;;;4.32;3.92;;;;;;;22.05;79.93;65309.47;5050503;28;20203;-54
2023/08/18 02:53:28;;;;;;;5.22;4.32;;;;;;;22.09;78.82;65313.34;5050941;28;20284;-55
2023/08/18 02:55:54;;;;;;;9.02;4.32;;;;;;;21.91;78.94;65296.00;5050767;28;20202;-54
2023/08/18 02:58:19;;;;;;;7.22;3.72;;;;;;;21.90;79.10;65294.91;5050884;28;20671;-56
2023/08/18 03:00:45;;;;;;;6.68;3.92;;;;;;;21.89;80.59;65291.22;5050797;28;20280;-56
2023/08/18 03:03:10;;;;;;;5.63;4.30;;;;;;;21.87;81.47;65291.56;5050612;28;20810;-54
2023/08/18 03:05:37;;;;;;;5.32;3.95;;;;;;;21.93;81.01;65295.63;5050378;28;20555;-59
2023/08/18 03:08:03;;;;;;;5.72;4.30;;;;;;;21.92;80.13;65297.66;5050514;28;20221;-58
2023/08/18 03:10:28;;;;;;;5.68;3.60;;;;;;;22.07;77.92;65311.13;5050784;28;20202;-54
2023/08/18 03:12:54;;;;;;;4.28;3.75;;;;;;;21.96;78.26;65296.94;5050837;28;20238;-54
2023/08/18 03:15:20;;;;;;;7.65;3.60;;;;;;;22.00;78.35;65300.81;5050457;28;20223;-55
2023/08/18 03:17:45;;;;;;;4.30;3.80;;;;;;;21.82;80.20;65286.59;5050675;28;20308;-57
2023/08/18 03:20:11;;;;;;;7.72;3.90;;;;;;;21.79;81.74;65280.69;5050747;28;20284;-55
2023/08/18 03:22:37;;;;;;;7.60;4.28;;;;;;;21.83;81.65;65287.13;5050515;28;20216;-57
2023/08/18 03:25:03;;;;;;;7.97;4.43;;;;;;;21.88;81.92;65288.09;5050360;28;20193;-58
2023/08/18 03:27:29;;;;;;;5.50;4.22;;;;;;;21.90;81.39;65289.75;5050353;28;20213;-55
2023/08/18 03:29:55;;;;;;;6.45;4.10;;;;;;;21.91;80.60;65290.84;5050279;28;20240;-55
2023/08/18 03:32:22;;;;;;;5.85;4.60;;;;;;;21.76;81.75;65279.91;5032201;28;20256;-58
2023/08/18 03:34:48;;;;;;;9.43;4.63;;;;;;;21.76;82.69;65274.78;5049955;28;20655;-56
2023/08/18 03:37:13;;;;;;;8.63;4.40;;;;;;;21.91;82.09;65293.97;5049916;28;20233;-55
2023/08/18 03:39:39;;;;;;;6.10;4.43;;;;;;;21.94;81.86;65296.75;5050457;28;20227;-55
2023/08/18 03:42:04;;;;;;;7.93;5.82;;;;;;;21.81;82.65;65282.34;5050580;28;20284;-53
2023/08/18 03:44:29;;;;;;;7.40;4.85;;;;;;;21.96;81.74;65296.41;5050101;28;20640;-55
2023/08/18 03:46:56;;;;;;;12.50;5.95;;;;;;;21.74;83.10;65275.69;5050351;28;20201;-57
2023/08/18 03:49:22;;;;;;;10.82;5.28;;;;;;;21.65;84.28;65263.16;5050702;28;20193;-55
2023/08/18 03:51:47;;;;;;;10.45;4.95;;;;;;;21.62;83.75;65264.44;5049974;28;20208;-53
2023/08/18 03:54:13;;;;;;;16.92;6.60;;;;;;;21.56;84.58;65253.22;5050136;28;20641;-55
2023/08/18 03:56:39;;;;;;;11.43;6.07;;;;;;;21.68;84.35;65268.50;5049823;28;20699;-55
2023/08/18 03:59:04;;;;;;;9.63;5.20;;;;;;;21.56;84.27;65257.78;5049886;28;20703;-60
2023/08/18 04:01:29;;;;;;;7.15;4.90;;;;;;;21.51;84.77;65247.69;5032053;28;20214;-56
2023/08/18 04:03:58;;;;;;;4.85;4.35;;;;;;;21.46;84.54;65246.72;5049901;28;20201;-58
2023/08/18 04:06:24;;;;;;;8.98;5.13;;;;;;;21.60;84.35;65262.22;5049666;28;20662;-54
2023/08/18 04:09:02;;;;;;;5.70;4.68;;;;;;;21.63;83.97;65266.09;5050163;28;20193;-53
2023/08/18 04:11:28;;;;;;;8.63;4.63;;;;;;;21.82;83.26;65286.59;5050090;28;20209;-58
2023/08/18 04:13:53;;;;;;;8.63;4.60;;;;;;;21.88;82.74;65288.09;5049785;28;20208;-55
2023/08/18 04:16:19;;;;;;;10.35;5.55;;;;;;;21.94;83.18;65294.19;5049664;28;20567;-56
2023/08/18 04:18:44;;;;;;;6.88;4.93;;;;;;;21.99;82.82;65300.28;5049451;28;20206;-54
2023/08/18 04:21:10;;;;;;;6.55;4.72;;;;;;;21.92;83.62;65294.53;5049746;28;20236;-55
2023/08/18 04:23:35;;;;;;;5.85;4.53;;;;;;;21.85;84.33;65284.22;5049557;28;20564;-54
2023/08/18 04:26:01;;;;;;;8.38;4.60;;;;;;;21.80;83.86;65281.22;5031702;28;20201;-54
2023/08/18 04:28:27;;;;;;;6.35;4.85;;;;;;;21.81;83.17;65285.47;5049547;28;20252;-55
2023/08/18 04:30:52;;;;;;;7.57;4.68;;;;;;;22.02;82.47;65308.72;5049010;28;20284;-58
2023/08/18 04:33:18;;;;;;;10.25;4.80;;;;;;;22.03;82.09;65306.69;5049242;28;20620;-55
2023/08/18 04:35:43;;;;;;;9.10;5.50;;;;;;;22.07;81.37;65311.69;5049208;28;20202;-57
2023/08/18 04:38:10;;;;;;;4.85;4.13;;;;;;;21.99;82.41;65299.72;5051721;28;20245;-60
2023/08/18 04:40:35;;;;;;;7.00;4.40;;;;;;;22.10;81.72;65314.47;5052948;28;20209;-54
2023/08/18 04:43:01;;;;;;;9.65;4.68;;;;;;;22.01;82.39;65304.50;5052541;28;20209;-57
2023/08/18 04:45:27;;;;;;;5.85;4.78;;;;;;;22.10;81.67;65311.88;5052496;28;20729;-55
2023/08/18 04:47:52;;;;;;;7.00;4.57;;;;;;;22.23;81.81;65328.84;5052210;28;20217;-55
2023/08/18 04:50:18;;;;;;;10.85;4.65;;;;;;;22.25;81.86;65333.63;5052648;28;20177;-54
2023/08/18 04:52:43;;;;;;;8.55;5.30;;;;;;;22.21;81.15;65324.63;5052671;28;20296;-54
2023/08/18 04:55:09;;;;;;;6.70;4.63;;;;;;;22.28;81.57;65331.81;5052373;28;20690;-53
2023/08/18 04:57:34;;;;;;;12.30;5.38;;;;;;;22.31;82.99;65337.69;5052194;28;20303;-54
2023/08/18 05:00:00;;;;;;;7.45;5.10;;;;;;;22.21;82.58;65324.06;5034516;28;20587;-55
2023/08/18 05:02:26;;;;;;;8.23;4.63;;;;;;;22.34;82.32;65341.56;5052218;28;20213;-54
2023/08/18 05:04:52;;;;;;;6.75;4.63;;;;;;;22.35;82.83;65342.69;5052504;28;20568;-50
2023/08/18 05:07:17;;;;;;;5.78;4.72;;;;;;;22.30;82.82;65337.13;5052439;28;20233;-51
2023/08/18 05:09:43;;;;;;;14.75;13.30;;;;;;;22.58;91.71;65367.06;5052296;28;20663;-51
2023/08/18 05:12:09;;;;;;;6.53;5.20;;;;;;;22.64;84.04;65371.13;5052482;28;20252;-52
2023/08/18 05:14:35;;;;;;;7.88;6.90;;;;;;;22.79;89.57;65390.28;5034177;28;20649;-51
2023/08/18 05:17:00;;;;;;;6.88;5.45;;;;;;;23.15;85.50;65430.72;5052411;28;20224;-50
2023/08/18 05:19:26;;;;;;;8.82;4.75;;;;;;;23.06;80.18;65418.19;5052244;28;20204;-51
2023/08/18 05:21:51;;;;;;;10.35;5.60;;;;;;;22.98;84.39;65406.22;5034273;28;20216;-52
2023/08/18 05:24:23;;;;;;;17.55;8.85;;;;;;;23.12;88.53;65427.41;5051910;28;20629;-50
2023/08/18 05:26:50;;;;;;;14.63;7.25;;;;;;;23.08;86.41;65419.84;5052304;28;20320;-51
2023/08/18 05:29:16;;;;;;;8.38;5.30;;;;;;;23.01;80.37;65412.09;5052005;28;20690;-51
2023/08/18 05:31:45;;;;;;;17.15;7.50;;;;;;;23.09;83.83;65423.53;5051826;28;20221;-52
2023/08/18 05:34:10;;;;;;;8.30;4.60;;;;;;;23.11;81.04;65423.72;5051864;28;20228;-51
2023/08/18 05:36:36;;;;;;;9.95;5.10;;;;;;;23.25;77.74;65441.81;5052141;28;20209;-51
2023/08/18 05:39:02;;;;;;;8.57;4.85;;;;;;;23.17;77.12;65435.53;5033730;28;20206;-52
2023/08/18 05:41:28;;;;;;;8.30;4.32;;;;;;;23.27;77.42;65443.47;5050767;28;20258;-52
2023/08/18 05:43:54;;;;;;;6.85;5.68;;;;;;;23.27;80.80;65444.03;5050325;28;20186;-50
2023/08/18 05:46:19;;;;;;;6.35;5.18;;;;;;;23.37;76.84;65452.00;5051850;28;20243;-51
2023/08/18 05:48:44;;;;;;;6.00;4.60;;;;;;;23.48;80.64;65464.19;5032532;28;20197;-50
2023/08/18 05:51:10;;;;;;;8.00;4.88;;;;;;;23.83;78.36;65505.56;5033446;28;20692;-50
2023/08/18 05:53:36;;;;;;;8.88;4.28;;;;;;;24.04;76.09;65525.72;5051488;28;20204;-50
2023/08/18 05:56:02;;;;;;;5.18;3.97;;;;;;;24.09;74.48;65531.28;5051313;28;20233;-54
2023/08/18 05:58:28;;;;;;;6.13;4.82;;;;;;;24.42;71.82;65567.31;5051286;28;20224;-50
2023/08/18 06:00:54;;;;;;;9.80;5.05;;;;;;;24.33;73.00;65559.91;5051453;28;20200;-50
2023/08/18 06:03:19;;;;;;;7.78;4.88;;;;;;;24.49;78.13;65578.19;5051340;28;20202;-50
2023/08/18 06:05:49;;;;;;;7.40;5.07;;;;;;;24.46;73.98;65571.75;5051759;28;20197;-51
2023/08/18 06:08:15;;;;;;;8.52;4.70;;;;;;;24.31;76.52;65555.09;5051263;28;20664;-50
2023/08/18 06:10:41;;;;;;;9.68;5.78;;;;;;;24.30;77.55;65557.13;5033382;28;20270;-51
2023/08/18 06:13:07;;;;;;;6.75;4.28;;;;;;;24.32;75.63;65556.75;5051182;28;20217;-55
2023/08/18 06:15:33;;;;;;;5.72;4.75;;;;;;;24.27;74.18;65553.81;5033638;28;20555;-57
2023/08/18 06:17:58;;;;;;;6.70;5.13;;;;;;;24.31;73.11;65555.09;5051277;28;20218;-52
2023/08/18 06:20:24;;;;;;;6.90;4.88;;;;;;;24.24;77.96;65547.88;5033166;28;20181;-50
2023/08/18 06:22:49;;;;;;;7.68;5.03;;;;;;;24.48;80.08;65574.53;5050915;28;20232;-51
2023/08/18 06:25:15;;;;;;;6.90;5.07;;;;;;;24.49;77.51;65578.19;5051187;28;20190;-50
2023/08/18 06:27:40;;;;;;;9.95;5.45;;;;;;;24.55;76.00;65587.44;5051455;28;20292;-52
2023/08/18 06:30:06;;;;;;;18.40;12.15;;;;;;;24.62;77.74;65586.91;5051366;28;20197;-50
2023/08/18 06:32:32;;;;;;;9.30;4.40;;;;;;;24.64;78.89;65587.13;5051114;28;20285;-51
2023/08/18 06:34:58;;;;;;;8.15;4.68;;;;;;;24.75;70.47;65601.91;5051423;28;20706;-51
2023/08/18 06:37:25;;;;;;;9.70;4.95;;;;;;;24.70;73.19;65598.38;5051088;28;20236;-51
2023/08/18 06:39:51;;;;;;;6.75;5.13;;;;;;;24.72;71.65;65598.00;5051091;28;20798;-51
2023/08/18 06:42:17;;;;;;;6.32;4.68;;;;;;;24.79;75.39;65608.38;5051160;28;20289;-51
2023/08/18 06:44:43;;;;;;;8.98;5.05;;;;;;;24.95;75.60;65626.66;5051362;28;20292;-51
2023/08/18 06:47:08;;;;;;;11.38;5.93;;;;;;;25.01;74.89;65632.78;5050906;28;20245;-52
2023/08/18 06:49:33;;;;;;;20.83;15.50;;;;;;;25.21;72.25;65657.53;5032650;28;20202;-52
2023/08/18 06:51:59;;;;;;;12.30;10.50;;;;;;;25.29;66.54;65663.31;5050557;28;20209;-50
2023/08/18 06:54:25;;;;;;;13.32;9.45;;;;;;;25.26;68.55;65660.53;5032545;28;20205;-51
2023/08/18 06:56:51;;;;;;;6.97;5.00;;;;;;;25.34;68.17;65668.84;5050507;28;20221;-50
2023/08/18 06:59:17;;;;;;;11.52;6.95;;;;;;;25.38;70.87;65673.84;5050576;28;20225;-51
2023/08/18 07:01:42;;;;;;;9.85;5.10;;;;;;;25.52;68.67;65688.84;5050195;28;20236;-51
2023/08/18 07:04:08;;;;;;;8.95;4.75;;;;;;;25.66;66.28;65704.94;5050559;28;20665;-49
2023/08/18 07:06:34;;;;;;;7.75;4.13;;;;;;;25.72;64.25;65708.47;5050672;28;20802;-49
2023/08/18 07:09:00;;;;;;;9.77;4.78;;;;;;;25.68;63.90;65709.19;5050377;28;20734;-51
2023/08/18 07:11:25;;;;;;;6.90;4.88;;;;;;;25.62;68.12;65700.50;5050348;28;20205;-51
2023/08/18 07:13:51;;;;;;;4.25;3.85;;;;;;;25.78;65.98;65712.53;5050447;28;20197;-52
2023/08/18 07:16:17;;;;;;;7.15;4.32;;;;;;;25.99;61.13;65741.03;5032534;28;20295;-51
2023/08/18 07:18:43;;;;;;;17.17;8.93;;;;;;;26.12;62.98;65758.06;5032115;28;20221;-51
2023/08/18 07:21:08;;;;;;;5.93;4.60;;;;;;;26.20;61.72;65764.38;5050251;28;20217;-51
2023/08/18 07:23:34;;;;;;;7.60;4.72;;;;;;;26.16;61.74;65759.91;5050571;28;20205;-51
2023/08/18 07:25:59;;;;;;;5.50;4.18;;;;;;;26.26;59.19;65770.50;5050331;28;20668;-51
2023/08/18 07:28:25;;;;;;;7.82;3.97;;;;;;;26.20;59.70;65763.81;5050017;28;20212;-51
2023/08/18 07:30:51;;;;;;;6.93;3.90;;;;;;;26.30;60.85;65772.34;5050062;28;20177;-51
2023/08/18 07:33:17;;;;;;;11.10;4.88;;;;;;;26.37;60.80;65783.25;5050343;28;20201;-51
2023/08/18 07:35:42;;;;;;;6.53;4.38;;;;;;;26.50;62.01;65797.69;5032221;28;20228;-52
2023/08/18 07:38:08;;;;;;;6.78;3.95;;;;;;;26.60;62.73;65808.81;5031862;28;20312;-51
2023/08/18 07:40:33;;;;;;;5.50;4.03;;;;;;;26.85;59.75;65833.47;5032137;28;20197;-51
2023/08/18 07:42:59;;;;;;;6.97;5.25;;;;;;;26.97;59.99;65848.81;5049993;28;20711;-53
2023/08/18 07:45:26;;;;;;;8.30;4.60;;;;;;;27.00;58.41;65852.19;5050438;28;20229;-52
2023/08/18 07:47:52;;;;;;;4.32;3.92;;;;;;;27.23;61.48;65878.28;5049615;28;20228;-52
2023/08/18 07:50:17;;;;;;;6.63;4.65;;;;;;;27.25;62.02;65879.97;5049506;28;20197;-52
2023/08/18 07:52:43;;;;;;;10.10;5.03;;;;;;;27.56;56.77;65911.84;5050071;28;20530;-52
2023/08/18 07:55:08;;;;;;;7.15;4.47;;;;;;;27.62;59.61;65917.97;5050007;28;20672;-54
2023/08/18 07:57:37;;;;;;;6.13;3.63;;;;;;;27.80;54.10;65941.13;5049759;28;20699;-51
2023/08/18 08:00:09;;;;;;;4.32;3.90;;;;;;;27.75;53.66;65935.59;5049582;28;20209;-51
2023/08/18 08:02:35;;;;;;;6.05;3.85;;;;;;;27.88;54.27;65946.88;5049505;28;20217;-51
2023/08/18 08:05:05;;;;;;;7.90;3.42;;;;;;;28.07;52.28;65971.22;5049694;28;20205;-52
2023/08/18 08:07:33;;;;;;;4.68;3.65;;;;;;;28.21;50.74;65986.78;5049722;28;20217;-51
2023/08/18 08:10:03;;;;;;;4.97;3.22;;;;;;;28.03;51.50;65964.16;5049571;28;20194;-52
2023/08/18 08:12:30;;;;;;;5.00;3.50;;;;;;;28.24;51.03;65984.91;5032555;28;20214;-51
2023/08/18 08:14:55;;;;;;;7.88;3.40;;;;;;;28.41;49.92;66005.88;5052892;28;20687;-51
2023/08/18 08:17:22;;;;;;;6.68;3.47;;;;;;;28.36;50.04;66000.31;5053054;28;20221;-50
2023/08/18 08:19:49;;;;;;;7.43;3.65;;;;;;;28.50;49.43;66015.34;5052854;28;20209;-53
2023/08/18 08:22:16;;;;;;;5.50;3.40;;;;;;;28.54;46.67;66019.78;5053245;28;20259;-51
2023/08/18 08:24:42;;;;;;;5.00;3.15;;;;;;;28.66;46.82;66035.78;5034996;28;20201;-51
2023/08/18 08:27:07;;;;;;;6.40;3.67;;;;;;;28.41;47.79;66005.88;5034938;28;20235;-51
2023/08/18 08:29:33;;;;;;;5.85;3.13;;;;;;;28.59;46.01;66025.38;5052723;28;20196;-51
2023/08/18 08:31:58;;;;;;;7.68;3.33;;;;;;;28.56;45.71;66024.63;5052849;28;20653;-51
2023/08/18 08:34:24;;;;;;;11.82;4.28;;;;;;;28.73;44.35;66041.50;5052995;28;20585;-52
2023/08/18 08:36:50;;;;;;;5.32;2.83;;;;;;;28.94;45.59;66064.91;5052716;28;20584;-51
2023/08/18 08:39:15;;;;;;;2.88;2.67;;;;;;;29.16;44.37;66091.44;5034840;28;20200;-51
2023/08/18 08:41:40;;;;;;;6.00;2.80;;;;;;;29.01;43.02;66072.13;5052821;28;20213;-51
2023/08/18 08:44:06;;;;;;;5.07;2.70;;;;;;;29.17;43.27;66089.97;5034931;28;20211;-50
2023/08/18 08:46:34;;;;;;;4.45;2.83;;;;;;;29.38;44.31;66112.78;5052989;28;20623;-53
2023/08/18 08:49:05;;;;;;;4.93;3.72;;;;;;;29.47;44.99;66123.38;5052750;28;20173;-50
2023/08/18 08:51:35;;;;;;;3.97;2.60;;;;;;;29.52;42.61;66128.94;5052550;28;20216;-50
2023/08/18 08:54:03;;;;;;;9.77;5.43;;;;;;;29.37;43.56;66109.63;5052619;28;20228;-51
2023/08/18 08:56:32;;;;;;;4.75;2.78;;;;;;;29.34;42.32;66110.94;5052500;28;20217;-60
2023/08/18 08:58:58;;;;;;;7.07;3.85;;;;;;;29.62;42.29;66142.13;5052100;28;20732;-51
2023/08/18 09:01:24;;;;;;;8.07;3.95;;;;;;;29.70;41.58;66151.03;5052236;28;20307;-54
2023/08/18 09:03:50;;;;;;;5.10;3.10;;;;;;;29.89;42.92;66172.22;5052669;28;20285;-53
2023/08/18 09:06:16;;;;;;;4.40;2.35;;;;;;;29.98;41.14;66176.50;5052741;28;20240;-58
2023/08/18 09:08:42;;;;;;;5.82;2.65;;;;;;;30.12;40.33;66194.72;5052124;28;20747;-52
2023/08/18 09:11:08;;;;;;;4.97;3.15;;;;;;;30.03;40.74;66184.66;5034124;28;20309;-49
2023/08/18 09:13:35;;;;;;;4.95;2.80;;;;;;;30.23;40.35;66204.34;5051951;28;20194;-50
2023/08/18 09:16:04;;;;;;;2.60;2.40;;;;;;;30.44;40.37;66228.34;5033835;28;20205;-50
2023/08/18 09:18:32;;;;;;;6.55;3.80;;;;;;;30.61;41.43;66249.34;5052235;28;20217;-54
2023/08/18 09:20:58;;;;;;;4.28;2.70;;;;;;;30.72;39.06;66258.44;5052077;28;20280;-54
2023/08/18 09:23:26;;;;;;;4.05;2.88;;;;;;;30.94;39.97;66286.16;5052181;28;20217;-54
2023/08/18 09:25:52;;;;;;;5.30;3.13;;;;;;;31.01;39.42;66293.94;5051879;28;20279;-51
2023/08/18 09:28:18;;;;;;;6.13;4.38;;;;;;;31.03;39.40;66296.19;5051941;28;20304;-51
2023/08/18 09:30:43;;;;;;;3.05;2.45;;;;;;;31.03;38.59;66298.25;5051737;28;20202;-52
2023/08/18 09:33:09;;;;;;;3.35;2.83;;;;;;;30.99;39.18;66291.72;5052393;28;20328;-52
2023/08/18 09:35:35;;;;;;;6.07;2.88;;;;;;;30.99;39.01;66291.72;5052571;28;20193;-52
2023/08/18 09:38:01;;;;;;;8.23;5.03;;;;;;;30.82;39.16;66274.78;5051750;28;20775;-50
2023/08/18 09:40:28;;;;;;;4.63;3.38;;;;;;;31.14;38.67;66311.06;5051632;28;20672;-54
2023/08/18 09:42:55;;;;;;;7.38;2.80;;;;;;;31.26;38.78;66321.28;5052201;28;20205;-54
2023/08/18 09:45:23;;;;;;;7.57;3.75;;;;;;;31.47;38.82;66346.78;5052100;28;20205;-51
2023/08/18 09:47:54;;;;;;;4.18;2.90;;;;;;;31.75;37.93;66378.59;5052084;28;20237;-52
2023/08/18 09:50:25;;;;;;;5.30;2.63;;;;;;;31.82;37.45;66383.22;5051637;28;20240;-51
2023/08/18 09:52:53;;;;;;;5.50;2.55;;;;;;;31.95;37.39;66395.72;5051992;28;20233;-51
2023/08/18 09:55:41;;;;;;;5.82;2.80;;;;;;;32.18;37.27;66420.81;5051895;28;20201;-50
2023/08/18 09:58:32;;;;;;;4.32;3.03;;;;;;;32.53;37.30;66461.97;5050759;28;20229;-54
2023/08/18 10:00:57;;;;;;;6.93;2.88;;;;;;;32.73;36.97;66482.25;5033326;28;20269;-50
2023/08/18 10:03:26;;;;;;;3.85;3.40;;;;;;;32.52;36.33;66460.84;5051676;28;20216;-52
2023/08/18 10:05:53;;;;;;;5.75;3.17;;;;;;;32.79;36.31;66488.38;5051236;28;20675;-51
2023/08/18 10:08:23;;;;;;;9.45;3.67;;;;;;;32.79;35.97;66491.56;5051318;28;20205;-50
2023/08/18 10:10:50;;;;;;;6.60;3.17;;;;;;;33.19;35.05;66532.53;5051081;28;20734;-53
2023/08/18 10:13:16;;;;;;;3.30;3.00;;;;;;;33.34;36.04;66549.28;5051521;28;20235;-51
2023/08/18 10:15:43;;;;;;;7.10;2.88;;;;;;;33.16;34.82;66532.34;5051123;28;20212;-52
2023/08/18 10:18:11;;;;;;;6.72;3.08;;;;;;;33.48;35.16;66567.53;5051028;28;20228;-52
2023/08/18 10:20:48;;;;;;;7.90;3.10;;;;;;;33.63;34.59;66582.28;5050949;28;20259;-51
2023/08/18 10:23:17;;;;;;;7.57;3.42;;;;;;;33.04;35.39;66516.91;5033117;28;20271;-55
2023/08/18 10:25:50;;;;;;;4.93;3.90;;;;;;;33.48;35.19;66564.91;5050797;28;20189;-52
2023/08/18 10:28:17;;;;;;;5.18;3.30;;;;;;;33.68;34.23;66590.47;5033090;28;20229;-51
2023/08/18 10:30:51;;;;;;;6.35;3.03;;;;;;;34.16;35.06;66646.19;5051292;28;20201;-55
2023/08/18 10:33:48;;;;;;;3.97;3.35;;;;;;;34.45;33.91;66675.44;5050753;28;20278;-52
2023/08/18 10:36:21;;;;;;;6.22;2.65;;;;;;;34.53;33.72;66682.38;5050333;28;20300;-51
2023/08/18 10:38:47;;;;;;;4.97;3.15;;;;;;;34.25;34.23;66651.03;5050594;28;20699;-51
2023/08/18 10:41:12;;;;;;;3.67;2.90;;;;;;;34.06;34.32;66629.78;5050555;28;20209;-53
2023/08/18 10:43:45;;;;;;;5.15;2.90;;;;;;;34.08;34.13;66632.03;5033050;28;20209;-52
2023/08/18 10:46:12;;;;;;;5.18;3.25;;;;;;;34.34;35.46;66661.09;5050441;28;20749;-56
2023/08/18 10:48:37;;;;;;;4.90;3.13;;;;;;;34.84;33.60;66721.16;5050924;28;20229;-51
2023/08/18 10:51:03;;;;;;;5.00;3.22;;;;;;;34.66;32.86;66696.91;5050647;28;20670;-51
2023/08/18 10:53:37;;;;;;;8.43;3.28;;;;;;;34.91;32.85;66724.31;5032649;28;20205;-51
2023/08/18 10:56:06;;;;;;;9.93;3.35;;;;;;;34.49;33.76;66679.94;5050622;28;20282;-51
2023/08/18 10:58:32;;;;;;;8.32;3.22;;;;;;;34.44;33.00;66674.88;5050202;28;20221;-52
2023/08/18 11:00:58;;;;;;;7.50;3.30;;;;;;;34.62;33.22;66691.88;5050338;28;20199;-51
2023/08/18 11:03:27;;;;;;;3.90;2.80;;;;;;;34.73;31.44;66706.22;5050962;28;20213;-51
2023/08/18 11:05:52;;;;;;;4.55;2.92;;;;;;;35.02;33.68;66736.06;5050773;28;20270;-51
2023/08/18 11:08:18;;;;;;;6.85;3.38;;;;;;;34.90;32.41;66723.19;5050271;28;20675;-51
2023/08/18 11:10:44;;;;;;;6.20;3.25;;;;;;;34.94;32.02;66727.09;5032380;28;20182;-51
2023/08/18 11:13:22;;;;;;;8.52;4.55;;;;;;;34.33;33.05;66662.59;5050824;28;20209;-51
2023/08/18 11:15:50;;;;;;;8.23;3.92;;;;;;;34.24;32.81;66652.53;5050157;28;20213;-50
2023/08/18 11:18:16;;;;;;;3.70;3.17;;;;;;;34.80;32.85;66711.44;5050056;28;20752;-51
2023/08/18 11:20:43;;;;;;;3.72;2.95;;;;;;;35.16;32.07;66751.72;5032576;28;20205;-52
2023/08/18 11:23:09;;;;;;;6.43;3.30;;;;;;;35.14;31.60;66752.69;5050208;28;20288;-57
2023/08/18 11:25:36;;;;;;;12.13;3.30;;;;;;;35.01;31.67;66735.50;5032329;28;20232;-52
2023/08/18 11:28:02;;;;;;;5.95;3.00;;;;;;;35.03;32.33;66737.19;5049906;28;20213;-51
2023/08/18 11:30:27;;;;;;;8.45;3.22;;;;;;;34.28;31.64;66653.84;5049939;28;20242;-51